Time;durP1;ratioP1;P1;durP2;ratioP2;P2;SDS_P1;SDS_P2;PMS_P1;PMS_P2;Temp;Humidity;BMP_temperature;BMP_pressure;BME280_temperature;BME280_humidity;BME280_pressure;Samples;Min_cycle;Max_cycle;Signal;HPM_P1;HPM_P2
2021/04/23 00:01:45;;;;;;;7.32;3.72;;;;;;;;;;5109977;28;20475;-64
2021/04/23 00:10:42;;;;;;;6.32;3.33;;;;;;;;;;5110767;27;20361;-64
2021/04/23 00:13:08;;;;;;;6.43;3.38;;;;;;;;;;5110527;28;20052;-64
2021/04/23 00:15:34;;;;;;;10.57;3.67;;;;;;;;;;5110017;28;20028;-64
2021/04/23 00:18:01;;;;;;;4.70;2.90;;;;;;;;;;5110399;28;20535;-64
2021/04/23 00:20:28;;;;;;;7.68;3.75;;;;;;;;;;5108975;28;20027;-65
2021/04/23 00:22:55;;;;;;;5.60;2.83;;;;;;;;;;5108825;28;20023;-65
2021/04/23 00:29:04;;;;;;;5.65;3.47;;;;;;;;;;5110727;27;20430;-65
2021/04/23 00:31:31;;;;;;;6.35;3.13;;;;;;;;;;5109106;28;20443;-64
2021/04/23 00:33:57;;;;;;;9.75;4.82;;;;;;;;;;5110433;28;20022;-64
2021/04/23 00:37:10;;;;;;;7.28;3.92;;;;;;;;;;5110162;27;20113;-64
2021/04/23 00:39:36;;;;;;;4.95;3.25;;;;;;;;;;5110489;28;20425;-64
2021/04/23 00:42:04;;;;;;;5.57;3.08;;;;;;;;;;5110384;28;20051;-65
2021/04/23 00:44:30;;;;;;;5.60;3.83;;;;;;;;;;5110045;28;20357;-65
2021/04/23 00:48:01;;;;;;;4.95;2.75;;;;;;;;;;5069996;28;20902;-64
2021/04/23 00:50:39;;;;;;;5.70;3.22;;;;;;;;;;5068831;28;20023;-64
2021/04/23 00:55:10;;;;;;;6.35;3.22;;;;;;;;;;5110470;27;20888;-64
2021/04/23 01:01:50;;;;;;;7.68;3.40;;;;;;;;;;5131031;27;20405;-64
2021/04/23 01:04:17;;;;;;;9.02;4.82;;;;;;;;;;5131044;28;20421;-64
2021/04/23 01:06:44;;;;;;;7.13;3.60;;;;;;;;;;5130531;27;20035;-64
2021/04/23 01:09:12;;;;;;;7.18;4.28;;;;;;;;;;5131089;27;20035;-65
2021/04/23 01:11:48;;;;;;;7.35;4.10;;;;;;;;;;5069727;28;20392;-64
2021/04/23 01:14:14;;;;;;;7.07;4.22;;;;;;;;;;5068666;28;20539;-65
2021/04/23 01:16:40;;;;;;;7.97;4.50;;;;;;;;;;5068677;28;20025;-64
2021/04/23 01:19:10;;;;;;;8.00;4.43;;;;;;;;;;5069532;28;20172;-64
2021/04/23 01:26:13;;;;;;;5.82;3.20;;;;;;;;;;5110136;27;20449;-65
2021/04/23 01:28:41;;;;;;;8.15;4.57;;;;;;;;;;5110714;28;20032;-64
2021/04/23 01:31:08;;;;;;;6.50;3.63;;;;;;;;;;5110466;28;20018;-64
2021/04/23 01:33:37;;;;;;;6.25;3.67;;;;;;;;;;5109990;28;20498;-64
2021/04/23 01:36:03;;;;;;;6.00;3.42;;;;;;;;;;5108998;28;20503;-64
2021/04/23 01:38:29;;;;;;;6.93;3.63;;;;;;;;;;5110264;28;20020;-64
2021/04/23 01:41:41;;;;;;;8.15;4.38;;;;;;;;;;5110079;27;20416;-64
2021/04/23 01:44:07;;;;;;;6.80;4.28;;;;;;;;;;5110403;28;20476;-64
2021/04/23 01:46:34;;;;;;;9.15;4.15;;;;;;;;;;5110502;28;20016;-65
2021/04/23 01:49:01;;;;;;;4.07;2.90;;;;;;;;;;5110127;28;20103;-64
2021/04/23 01:51:27;;;;;;;8.95;4.65;;;;;;;;;;5110346;28;20042;-64
2021/04/23 01:55:07;;;;;;;10.05;5.30;;;;;;;;;;5110041;27;20915;-64
2021/04/23 01:58:22;;;;;;;11.15;5.70;;;;;;;;;;5110566;27;20888;-64
2021/04/23 02:00:49;;;;;;;9.60;5.15;;;;;;;;;;5110488;28;20020;-64
2021/04/23 02:03:16;;;;;;;9.23;5.10;;;;;;;;;;5108865;28;20032;-64
2021/04/23 02:05:44;;;;;;;9.77;5.28;;;;;;;;;;5110571;28;20085;-64
2021/04/23 02:08:11;;;;;;;8.75;5.07;;;;;;;;;;5109798;28;20095;-64
2021/04/23 02:10:40;;;;;;;9.15;5.40;;;;;;;;;;5110275;28;20024;-64
2021/04/23 02:13:06;;;;;;;8.60;5.35;;;;;;;;;;5108960;28;20020;-64
2021/04/23 02:15:33;;;;;;;7.47;4.32;;;;;;;;;;5109736;28;20438;-64
2021/04/23 02:18:17;;;;;;;10.02;5.38;;;;;;;;;;5110539;27;20385;-65
2021/04/23 02:20:43;;;;;;;7.65;4.63;;;;;;;;;;5110424;28;20481;-65
2021/04/23 02:24:56;;;;;;;11.32;4.65;;;;;;;;;;5110691;27;20384;-65
2021/04/23 02:27:22;;;;;;;8.07;4.55;;;;;;;;;;5109146;28;20034;-65
2021/04/23 02:29:48;;;;;;;8.30;4.38;;;;;;;;;;5110046;28;20059;-65
2021/04/23 02:32:15;;;;;;;7.43;4.80;;;;;;;;;;5110402;28;20051;-65
2021/04/23 02:35:34;;;;;;;9.57;4.80;;;;;;;;;;5110497;27;20438;-65
2021/04/23 02:38:55;;;;;;;9.65;5.13;;;;;;;;;;5130929;27;20509;-65
2021/04/23 02:41:21;;;;;;;7.95;5.00;;;;;;;;;;5092227;28;20034;-65
2021/04/23 02:43:50;;;;;;;8.05;4.82;;;;;;;;;;5110252;28;20361;-65
2021/04/23 02:46:18;;;;;;;11.88;5.45;;;;;;;;;;5092217;28;20016;-65
2021/04/23 02:48:44;;;;;;;11.38;6.15;;;;;;;;;;5110281;28;20020;-65
2021/04/23 02:51:15;;;;;;;7.43;4.55;;;;;;;;;;5109925;28;20024;-65
2021/04/23 02:55:51;;;;;;;9.35;5.40;;;;;;;;;;5110626;27;20377;-65
2021/04/23 02:58:18;;;;;;;9.13;5.78;;;;;;;;;;5110182;28;20107;-65
2021/04/23 03:00:47;;;;;;;8.00;5.13;;;;;;;;;;5110492;28;20423;-65
2021/04/23 03:03:13;;;;;;;11.00;6.63;;;;;;;;;;5110542;28;20055;-65
2021/04/23 03:05:41;;;;;;;10.95;6.50;;;;;;;;;;5110103;28;20024;-65
2021/04/23 03:08:07;;;;;;;10.05;6.28;;;;;;;;;;5110349;28;20073;-65
2021/04/23 03:10:36;;;;;;;12.90;7.18;;;;;;;;;;5110589;28;20020;-65
2021/04/23 03:13:09;;;;;;;11.38;5.82;;;;;;;;;;5109748;28;20032;-65
2021/04/23 03:15:35;;;;;;;10.65;6.07;;;;;;;;;;5110092;28;20036;-65
2021/04/23 03:18:01;;;;;;;11.70;7.63;;;;;;;;;;5108802;28;20036;-65
2021/04/23 03:21:26;;;;;;;11.63;7.20;;;;;;;;;;5110490;27;20357;-65
2021/04/23 03:23:52;;;;;;;12.32;7.32;;;;;;;;;;5110681;28;20027;-64
2021/04/23 03:26:19;;;;;;;14.60;8.27;;;;;;;;;;5108858;28;20053;-64
2021/04/23 03:28:46;;;;;;;10.73;6.97;;;;;;;;;;5109057;28;20073;-64
2021/04/23 03:31:13;;;;;;;15.95;7.13;;;;;;;;;;5109061;28;20107;-65
2021/04/23 03:33:40;;;;;;;17.30;7.97;;;;;;;;;;5109857;28;20026;-64
2021/04/23 03:36:06;;;;;;;10.68;6.68;;;;;;;;;;5108926;28;20031;-64
2021/04/23 03:38:34;;;;;;;10.18;6.72;;;;;;;;;;5110121;28;20372;-64
2021/04/23 03:41:01;;;;;;;10.98;5.97;;;;;;;;;;5109670;28;20031;-64
2021/04/23 03:43:27;;;;;;;11.18;7.07;;;;;;;;;;5110273;28;20107;-64
2021/04/23 03:45:54;;;;;;;10.38;6.18;;;;;;;;;;5110226;28;20476;-64
2021/04/23 03:48:20;;;;;;;10.63;6.40;;;;;;;;;;5109687;28;20027;-64
2021/04/23 03:50:47;;;;;;;10.48;6.43;;;;;;;;;;5108630;28;20601;-65
2021/04/23 03:53:14;;;;;;;9.70;6.32;;;;;;;;;;5109924;28;20476;-65
2021/04/23 03:55:43;;;;;;;9.70;6.03;;;;;;;;;;5109420;28;20101;-65
2021/04/23 03:58:09;;;;;;;10.25;6.82;;;;;;;;;;5109767;28;20476;-65
2021/04/23 04:01:30;;;;;;;17.58;9.10;;;;;;;;;;5110095;27;20434;-65
2021/04/23 04:03:56;;;;;;;18.73;10.48;;;;;;;;;;5109308;28;20077;-65
2021/04/23 04:06:23;;;;;;;18.35;10.57;;;;;;;;;;5110557;28;20097;-65
2021/04/23 04:08:49;;;;;;;15.73;9.55;;;;;;;;;;5109990;28;20020;-65
2021/04/23 04:14:05;;;;;;;11.50;7.53;;;;;;;;;;5110471;27;20388;-65
2021/04/23 04:16:32;;;;;;;13.07;8.45;;;;;;;;;;5109993;28;20043;-66
2021/04/23 04:20:23;;;;;;;11.93;7.40;;;;;;;;;;5110639;27;20453;-66
2021/04/23 04:22:49;;;;;;;10.98;6.85;;;;;;;;;;5110145;28;20024;-66
2021/04/23 04:25:20;;;;;;;12.73;7.78;;;;;;;;;;5109317;28;20434;-66
2021/04/23 04:27:46;;;;;;;12.63;6.95;;;;;;;;;;5109123;28;20049;-66
2021/04/23 04:30:13;;;;;;;28.92;14.73;;;;;;;;;;5109800;28;20012;-66
2021/04/23 04:32:57;;;;;;;23.40;11.57;;;;;;;;;;5110494;27;20373;-65
2021/04/23 04:35:30;;;;;;;16.25;8.82;;;;;;;;;;5110398;28;20031;-65
2021/04/23 04:37:57;;;;;;;13.98;8.60;;;;;;;;;;5108797;28;20106;-65
2021/04/23 04:41:58;;;;;;;14.77;9.77;;;;;;;;;;5110482;27;20445;-64
2021/04/23 04:44:24;;;;;;;13.30;7.75;;;;;;;;;;5109029;28;20028;-65
2021/04/23 04:47:34;;;;;;;11.30;7.50;;;;;;;;;;5110527;27;20377;-64
2021/04/23 04:50:01;;;;;;;11.30;6.57;;;;;;;;;;5110379;28;20032;-64
2021/04/23 04:53:56;;;;;;;9.43;5.90;;;;;;;;;;5130972;27;20384;-64
2021/04/23 04:56:23;;;;;;;11.80;6.55;;;;;;;;;;5131228;28;20035;-64
2021/04/23 04:58:49;;;;;;;12.23;6.80;;;;;;;;;;5130347;28;20019;-65
2021/04/23 05:01:15;;;;;;;11.77;6.70;;;;;;;;;;5112115;28;20055;-65
2021/04/23 05:03:42;;;;;;;9.68;6.90;;;;;;;;;;5107062;28;20102;-65
2021/04/23 05:06:09;;;;;;;9.82;6.93;;;;;;;;;;5130251;28;20024;-65
2021/04/23 05:08:36;;;;;;;11.55;6.60;;;;;;;;;;5127605;28;20019;-65
2021/04/23 05:11:03;;;;;;;11.80;7.05;;;;;;;;;;5129950;27;20098;-66
2021/04/23 05:13:29;;;;;;;10.30;6.10;;;;;;;;;;5130345;28;20031;-66
2021/04/23 05:16:05;;;;;;;8.00;5.38;;;;;;;;;;5063534;28;20400;-66
2021/04/23 05:18:32;;;;;;;9.00;5.32;;;;;;;;;;5066548;28;20024;-67
2021/04/23 05:21:24;;;;;;;9.73;6.80;;;;;;;;;;5066372;28;20379;-66
2021/04/23 05:23:50;;;;;;;9.60;6.60;;;;;;;;;;5066396;28;20473;-65
2021/04/23 05:26:17;;;;;;;14.25;7.07;;;;;;;;;;5068612;28;20043;-66
2021/04/23 05:28:43;;;;;;;16.67;9.25;;;;;;;;;;5069363;28;20542;-67
2021/04/23 05:31:09;;;;;;;15.95;8.38;;;;;;;;;;5066571;28;20029;-66
2021/04/23 05:33:35;;;;;;;15.20;9.35;;;;;;;;;;5065649;28;20043;-66
2021/04/23 05:40:46;;;;;;;18.73;9.82;;;;;;;;;;5170496;27;20157;-66
2021/04/23 05:43:13;;;;;;;16.75;9.65;;;;;;;;;;5150780;27;20072;-65
2021/04/23 05:45:40;;;;;;;14.70;9.48;;;;;;;;;;5150114;27;20019;-67
2021/04/23 05:48:07;;;;;;;13.45;9.23;;;;;;;;;;5131874;27;20645;-67
2021/04/23 05:51:43;;;;;;;13.90;8.55;;;;;;;;;;5109088;27;20369;-66
2021/04/23 05:57:42;;;;;;;19.52;10.88;;;;;;;;;;5067799;28;20441;-69
2021/04/23 06:00:10;;;;;;;17.33;11.00;;;;;;;;;;5068418;28;20037;-68
2021/04/23 06:04:46;;;;;;;19.00;11.10;;;;;;;;;;5109472;27;20155;-68
2021/04/23 06:07:13;;;;;;;19.38;10.23;;;;;;;;;;5089700;28;20066;-68
2021/04/23 06:11:42;;;;;;;15.18;8.90;;;;;;;;;;5109822;27;20442;-67
2021/04/23 06:17:14;;;;;;;15.70;10.52;;;;;;;;;;5069492;28;20406;-68
2021/04/23 06:19:40;;;;;;;15.23;9.10;;;;;;;;;;5067599;28;20082;-68
2021/04/23 06:22:07;;;;;;;12.18;7.68;;;;;;;;;;5068866;28;20027;-68
2021/04/23 06:25:53;;;;;;;28.90;15.18;;;;;;;;;;5108921;27;20381;-66
2021/04/23 06:29:18;;;;;;;28.85;16.60;;;;;;;;;;5109310;27;20385;-66
2021/04/23 06:32:25;;;;;;;26.75;17.50;;;;;;;;;;5109725;27;20385;-67
2021/04/23 06:34:51;;;;;;;26.75;16.80;;;;;;;;;;5107818;28;20039;-67
2021/04/23 06:37:21;;;;;;;19.67;14.20;;;;;;;;;;5109565;28;20561;-67
2021/04/23 06:39:47;;;;;;;25.15;15.48;;;;;;;;;;5109773;28;20047;-69
2021/04/23 06:42:14;;;;;;;16.83;12.18;;;;;;;;;;5109611;28;20388;-68
2021/04/23 06:45:53;;;;;;;15.90;10.13;;;;;;;;;;5084469;28;20445;-71
2021/04/23 06:48:20;;;;;;;16.17;11.43;;;;;;;;;;5069711;28;20423;-68
2021/04/23 06:50:47;;;;;;;22.52;15.68;;;;;;;;;;5068444;28;20024;-67
2021/04/23 06:53:13;;;;;;;14.27;10.20;;;;;;;;;;5066856;28;20024;-68
2021/04/23 06:55:40;;;;;;;14.98;9.57;;;;;;;;;;5068488;28;20039;-68
2021/04/23 07:00:26;;;;;;;11.43;7.38;;;;;;;;;;5109886;27;20447;-68
2021/04/23 07:02:53;;;;;;;12.90;8.00;;;;;;;;;;5109964;28;20111;-69
2021/04/23 07:07:36;;;;;;;9.38;4.93;;;;;;;;;;5069711;28;20396;-68
2021/04/23 07:10:03;;;;;;;10.82;5.53;;;;;;;;;;5069218;28;20048;-68
2021/04/23 07:12:29;;;;;;;9.45;5.97;;;;;;;;;;5069043;28;20025;-68
2021/04/23 07:14:55;;;;;;;10.05;5.80;;;;;;;;;;5069113;28;20422;-69
2021/04/23 07:17:21;;;;;;;9.60;5.63;;;;;;;;;;5069087;28;20029;-68
2021/04/23 07:22:08;;;;;;;12.02;7.20;;;;;;;;;;5110163;27;20443;-67
2021/04/23 07:24:35;;;;;;;12.35;7.30;;;;;;;;;;5109241;28;20073;-67
2021/04/23 07:27:01;;;;;;;15.02;7.97;;;;;;;;;;5109826;28;20085;-67
2021/04/23 07:31:11;;;;;;;16.13;10.05;;;;;;;;;;5106434;27;20438;-68
2021/04/23 07:34:41;;;;;;;12.07;7.18;;;;;;;;;;5109833;27;20389;-69
2021/04/23 07:37:31;;;;;;;8.80;5.60;;;;;;;;;;5068092;28;20441;-69
2021/04/23 07:39:58;;;;;;;9.88;5.32;;;;;;;;;;5047790;28;20029;-67
2021/04/23 07:42:24;;;;;;;12.60;7.47;;;;;;;;;;5047867;28;20029;-67
2021/04/23 07:44:51;;;;;;;9.98;6.25;;;;;;;;;;5069329;28;20033;-67
2021/04/23 07:47:17;;;;;;;10.13;6.35;;;;;;;;;;5068700;28;20017;-67
2021/04/23 07:49:47;;;;;;;10.02;5.28;;;;;;;;;;5067880;28;20049;-66
2021/04/23 07:52:13;;;;;;;10.55;5.57;;;;;;;;;;5061567;28;20147;-67
2021/04/23 07:54:39;;;;;;;10.43;4.78;;;;;;;;;;5048594;28;20488;-66
2021/04/23 07:57:06;;;;;;;18.58;7.55;;;;;;;;;;5046226;28;20609;-66
2021/04/23 08:00:46;;;;;;;16.13;6.80;;;;;;;;;;5109376;27;20381;-65
2021/04/23 08:03:13;;;;;;;13.05;5.95;;;;;;;;;;5108235;28;20030;-65
2021/04/23 08:05:39;;;;;;;7.57;4.10;;;;;;;;;;5109368;28;20708;-67
2021/04/23 08:22:26;;;;;;;7.68;3.88;;;;;;;;;;5170652;27;20433;-63
2021/04/23 08:24:53;;;;;;;7.32;3.83;;;;;;;;;;5158811;27;20019;-63
2021/04/23 08:28:03;;;;;;;6.57;3.17;;;;;;;;;;5105481;27;20392;-63
2021/04/23 08:36:00;;;;;;;6.95;3.45;;;;;;;;;;5065449;27;20484;-66
2021/04/23 08:38:26;;;;;;;10.15;4.88;;;;;;;;;;5067337;28;20028;-64
2021/04/23 08:45:15;;;;;;;9.50;4.82;;;;;;;;;;5109997;27;20430;-63
2021/04/23 08:47:43;;;;;;;8.55;3.85;;;;;;;;;;5108552;28;20039;-64
2021/04/23 08:51:33;;;;;;;6.38;2.90;;;;;;;;;;5069081;28;20388;-63
2021/04/23 08:54:00;;;;;;;8.45;3.40;;;;;;;;;;5068849;28;20021;-65
2021/04/23 08:58:04;;;;;;;7.72;3.72;;;;;;;;;;5109871;27;20393;-66
2021/04/23 09:00:30;;;;;;;6.82;3.67;;;;;;;;;;5125396;28;20081;-65
2021/04/23 09:04:40;;;;;;;7.15;3.20;;;;;;;;;;5065276;28;20387;-66
2021/04/23 09:08:52;;;;;;;5.47;3.20;;;;;;;;;;5068745;28;20384;-64
2021/04/23 09:12:34;;;;;;;8.93;3.10;;;;;;;;;;5170575;27;20492;-64
2021/04/23 09:15:02;;;;;;;5.07;2.80;;;;;;;;;;5147266;27;20033;-65
2021/04/23 09:17:29;;;;;;;4.03;1.90;;;;;;;;;;5129386;27;20263;-66
2021/04/23 09:21:05;;;;;;;6.15;3.05;;;;;;;;;;5061804;28;20420;-65
2021/04/23 09:23:31;;;;;;;6.68;3.25;;;;;;;;;;5065376;28;20040;-65
2021/04/23 09:26:32;;;;;;;6.05;3.55;;;;;;;;;;5107750;27;20410;-66
2021/04/23 09:28:59;;;;;;;4.97;2.63;;;;;;;;;;5102137;28;20475;-65
2021/04/23 09:31:26;;;;;;;9.18;4.57;;;;;;;;;;5109986;28;20419;-65
2021/04/23 09:33:58;;;;;;;10.18;4.07;;;;;;;;;;5108198;28;20016;-67
2021/04/23 09:36:30;;;;;;;8.73;3.17;;;;;;;;;;5109153;28;20106;-67
2021/04/23 09:39:13;;;;;;;5.57;2.70;;;;;;;;;;5110094;28;20030;-67
2021/04/23 09:41:44;;;;;;;5.20;2.83;;;;;;;;;;5108125;28;20098;-68
2021/04/23 09:44:29;;;;;;;7.93;3.75;;;;;;;;;;5109492;28;20032;-67
2021/04/23 09:49:30;;;;;;;8.40;4.60;;;;;;;;;;5109500;27;20384;-68
2021/04/23 09:53:35;;;;;;;6.72;3.28;;;;;;;;;;5109070;27;20790;-67
2021/04/23 09:56:01;;;;;;;7.97;4.85;;;;;;;;;;5107546;28;20032;-69
2021/04/23 09:59:20;;;;;;;12.88;6.40;;;;;;;;;;5069686;28;20432;-67
2021/04/23 10:01:54;;;;;;;13.88;6.30;;;;;;;;;;5069180;28;20025;-66
2021/04/23 10:04:28;;;;;;;14.52;6.80;;;;;;;;;;5067132;28;20117;-66
2021/04/23 10:07:06;;;;;;;14.68;7.57;;;;;;;;;;5062060;28;20675;-66
2021/04/23 10:09:42;;;;;;;10.43;6.25;;;;;;;;;;5063760;28;20045;-65
2021/04/23 10:13:41;;;;;;;14.43;5.25;;;;;;;;;;5110004;27;20442;-66
2021/04/23 10:16:08;;;;;;;8.45;5.00;;;;;;;;;;5109855;28;20028;-66
2021/04/23 10:18:36;;;;;;;6.30;3.25;;;;;;;;;;5107476;28;20039;-66
2021/04/23 10:21:02;;;;;;;10.43;4.15;;;;;;;;;;5109949;28;20035;-66
2021/04/23 10:23:30;;;;;;;8.32;3.90;;;;;;;;;;5108109;28;20020;-66
2021/04/23 10:26:54;;;;;;;10.80;4.68;;;;;;;;;;5108692;27;20991;-65
2021/04/23 10:29:21;;;;;;;9.32;3.58;;;;;;;;;;5109913;28;20118;-66
2021/04/23 10:31:47;;;;;;;6.53;3.03;;;;;;;;;;5106626;28;20024;-67
2021/04/23 10:34:14;;;;;;;6.25;3.17;;;;;;;;;;5110154;28;20042;-66
2021/04/23 10:36:40;;;;;;;6.15;2.95;;;;;;;;;;5108701;28;20028;-67
2021/04/23 10:39:07;;;;;;;7.50;4.07;;;;;;;;;;5108767;28;20028;-67
2021/04/23 10:41:34;;;;;;;8.07;3.35;;;;;;;;;;5109864;28;20440;-66
2021/04/23 10:44:00;;;;;;;8.38;3.65;;;;;;;;;;5110033;28;20510;-69
2021/04/23 10:46:28;;;;;;;9.43;3.40;;;;;;;;;;5108994;28;20039;-67
2021/04/23 10:50:59;;;;;;;7.13;3.10;;;;;;;;;;5151290;27;20948;-66
2021/04/23 10:53:42;;;;;;;7.43;4.03;;;;;;;;;;5150494;27;20518;-69
2021/04/23 10:57:00;;;;;;;11.95;4.60;;;;;;;;;;5110054;27;20400;-68
2021/04/23 11:00:35;;;;;;;11.50;4.47;;;;;;;;;;5089745;27;20384;-67
2021/04/23 11:03:33;;;;;;;8.45;3.75;;;;;;;;;;5068041;28;20688;-67
2021/04/23 11:08:08;;;;;;;16.83;8.35;;;;;;;;;;5025127;28;20481;-68
2021/04/23 11:12:41;;;;;;;10.20;4.72;;;;;;;;;;5010145;27;20436;-71
2021/04/23 11:15:12;;;;;;;8.93;3.85;;;;;;;;;;5010293;28;20393;-69
2021/04/23 11:17:38;;;;;;;6.32;3.47;;;;;;;;;;5012595;28;20021;-68
2021/04/23 11:21:47;;;;;;;7.25;3.28;;;;;;;;;;5124023;27;20114;-68
2021/04/23 11:24:16;;;;;;;7.53;3.95;;;;;;;;;;5097032;27;20406;-64
2021/04/23 11:26:56;;;;;;;2.67;1.58;;;;;;;;;;5098873;27;20019;-64
2021/04/23 11:29:23;;;;;;;6.18;3.35;;;;;;;;;;5097919;27;20027;-64
2021/04/23 11:32:05;;;;;;;5.43;2.20;;;;;;;;;;5082766;27;20084;-63
2021/04/23 11:34:41;;;;;;;6.17;2.60;;;;;;;;;;5085319;27;20047;-63
2021/04/23 11:37:11;;;;;;;10.30;4.97;;;;;;;;;;5101438;27;20518;-63
2021/04/23 11:42:11;;;;;;;7.13;3.40;;;;;;;;;;5069216;27;20409;-64
2021/04/23 11:44:41;;;;;;;6.90;3.22;;;;;;;;;;5067971;28;20028;-64
2021/04/23 11:48:06;;;;;;;8.00;4.63;;;;;;;;;;5073484;27;20567;-63
2021/04/23 11:50:34;;;;;;;10.68;4.72;;;;;;;;;;5070577;28;20097;-64
2021/04/23 11:54:52;;;;;;;10.00;3.55;;;;;;;;;;5067552;28;20383;-62
2021/04/23 11:57:19;;;;;;;6.40;3.05;;;;;;;;;;5067398;28;20063;-63
2021/04/23 12:00:03;;;;;;;7.50;3.33;;;;;;;;;;5068301;28;20391;-63
2021/04/23 12:04:46;;;;;;;2.70;1.75;;;;;;;;;;5089197;27;20407;-65
2021/04/23 12:07:13;;;;;;;6.60;3.15;;;;;;;;;;5128139;28;20027;-65
2021/04/23 12:10:50;;;;;;;4.22;2.08;;;;;;;;;;5109613;27;20450;-62
2021/04/23 12:15:20;;;;;;;2.63;1.58;;;;;;;;;;5130344;27;20452;-64
2021/04/23 12:17:47;;;;;;;3.75;1.65;;;;;;;;;;5128644;28;20042;-63
2021/04/23 12:21:19;;;;;;;3.55;1.65;;;;;;;;;;5127278;27;20313;-64
2021/04/23 12:23:46;;;;;;;7.13;3.20;;;;;;;;;;5091944;28;20032;-63
2021/04/23 12:26:13;;;;;;;10.52;4.22;;;;;;;;;;5109605;28;20048;-63
2021/04/23 12:28:48;;;;;;;5.35;2.35;;;;;;;;;;5109925;28;20064;-63
2021/04/23 12:33:59;;;;;;;3.63;1.70;;;;;;;;;;5107916;27;20381;-64
2021/04/23 12:36:29;;;;;;;8.55;4.95;;;;;;;;;;5106850;28;20039;-65
2021/04/23 12:38:56;;;;;;;8.48;3.88;;;;;;;;;;5107947;28;20031;-63
2021/04/23 12:44:39;;;;;;;10.38;5.10;;;;;;;;;;5129863;27;20652;-63
2021/04/23 12:47:08;;;;;;;9.65;4.85;;;;;;;;;;5109753;28;20494;-63
2021/04/23 12:49:39;;;;;;;6.68;2.92;;;;;;;;;;5110126;28;20028;-63
2021/04/23 12:52:41;;;;;;;12.48;6.43;;;;;;;;;;5171295;27;20879;-62
2021/04/23 12:58:09;;;;;;;13.75;6.72;;;;;;;;;;5110027;27;20393;-64
2021/04/23 13:00:37;;;;;;;23.52;7.78;;;;;;;;;;5109658;28;20020;-64
2021/04/23 13:03:03;;;;;;;12.35;5.68;;;;;;;;;;5110274;28;20049;-64
2021/04/23 13:05:30;;;;;;;8.23;3.70;;;;;;;;;;5110263;28;20463;-64
2021/04/23 13:07:57;;;;;;;12.80;5.82;;;;;;;;;;5107757;28;20024;-65
2021/04/23 13:10:39;;;;;;;7.75;3.45;;;;;;;;;;5109616;28;20102;-64
2021/04/23 13:13:07;;;;;;;5.85;2.80;;;;;;;;;;5108995;28;20020;-64
2021/04/23 13:15:38;;;;;;;11.73;3.65;;;;;;;;;;5109080;28;20027;-64
2021/04/23 13:18:15;;;;;;;8.27;4.18;;;;;;;;;;5110195;28;20036;-64
2021/04/23 13:23:09;;;;;;;4.65;2.67;;;;;;;;;;5110736;27;20410;-63
2021/04/23 13:25:37;;;;;;;9.02;4.43;;;;;;;;;;5110987;28;20032;-66
2021/04/23 13:28:06;;;;;;;13.10;6.40;;;;;;;;;;5109316;28;20467;-65
2021/04/23 13:30:34;;;;;;;11.57;6.15;;;;;;;;;;5109634;28;20032;-63
2021/04/23 13:33:05;;;;;;;12.73;8.05;;;;;;;;;;5110692;28;20383;-63
2021/04/23 13:35:33;;;;;;;17.38;8.95;;;;;;;;;;5109881;28;20024;-63
2021/04/23 13:38:18;;;;;;;15.30;9.27;;;;;;;;;;5110224;28;20052;-66
2021/04/23 13:40:45;;;;;;;17.77;10.18;;;;;;;;;;5110223;28;20459;-64
2021/04/23 13:43:12;;;;;;;20.90;9.68;;;;;;;;;;5108638;28;20036;-64
2021/04/23 13:45:39;;;;;;;17.35;10.55;;;;;;;;;;5110166;28;20020;-65
2021/04/23 13:49:31;;;;;;;19.35;14.07;;;;;;;;;;5108411;27;20320;-66
2021/04/23 13:53:36;;;;;;;20.25;13.20;;;;;;;;;;5110821;27;20426;-65
2021/04/23 14:02:33;;;;;;;20.60;13.73;;;;;;;;;;5109989;27;20438;-66
2021/04/23 14:04:59;;;;;;;19.48;14.40;;;;;;;;;;5109549;28;20024;-66
2021/04/23 14:07:28;;;;;;;24.42;14.65;;;;;;;;;;5108754;28;20566;-66
2021/04/23 14:09:54;;;;;;;24.35;14.65;;;;;;;;;;5108187;28;20028;-67
2021/04/23 14:12:23;;;;;;;17.67;12.85;;;;;;;;;;5108316;28;20024;-66
2021/04/23 14:14:50;;;;;;;22.50;14.00;;;;;;;;;;5108376;28;20020;-66
2021/04/23 14:17:17;;;;;;;23.77;15.88;;;;;;;;;;5108935;28;20043;-65
2021/04/23 14:22:05;;;;;;;26.63;18.60;;;;;;;;;;5109958;27;20328;-62
2021/04/23 14:24:32;;;;;;;26.85;17.83;;;;;;;;;;5088606;28;20020;-62
2021/04/23 14:26:58;;;;;;;32.45;19.30;;;;;;;;;;5089938;28;20104;-65
2021/04/23 14:29:24;;;;;;;37.17;21.30;;;;;;;;;;5090027;28;20021;-65
2021/04/23 14:31:51;;;;;;;38.42;22.13;;;;;;;;;;5089412;28;20597;-64
2021/04/23 14:34:18;;;;;;;43.80;24.63;;;;;;;;;;5089720;28;20043;-63
2021/04/23 14:36:44;;;;;;;29.85;18.65;;;;;;;;;;5088808;28;20021;-64
2021/04/23 14:41:12;;;;;;;30.30;20.48;;;;;;;;;;5069606;28;20391;-64
2021/04/23 14:43:38;;;;;;;39.03;27.08;;;;;;;;;;5069984;28;20033;-64
2021/04/23 14:46:05;;;;;;;39.33;17.38;;;;;;;;;;5069391;28;20059;-65
2021/04/23 14:48:31;;;;;;;29.45;21.20;;;;;;;;;;5069748;28;20384;-65
2021/04/23 14:50:58;;;;;;;30.33;20.25;;;;;;;;;;5069142;28;20023;-65
2021/04/23 14:53:24;;;;;;;32.38;20.80;;;;;;;;;;5067433;28;20017;-64
2021/04/23 14:55:51;;;;;;;30.63;20.05;;;;;;;;;;5066314;28;20611;-65
2021/04/23 14:58:18;;;;;;;26.35;17.38;;;;;;;;;;5068167;28;20033;-65
2021/04/23 15:02:58;;;;;;;22.58;15.18;;;;;;;;;;5109380;27;20372;-65
2021/04/23 15:05:24;;;;;;;18.63;13.20;;;;;;;;;;5109390;28;20024;-65
2021/04/23 15:08:45;;;;;;;21.38;14.57;;;;;;;;;;5110279;27;20381;-64
2021/04/23 15:11:11;;;;;;;21.02;14.10;;;;;;;;;;5109088;28;20035;-63
2021/04/23 15:13:38;;;;;;;24.98;17.17;;;;;;;;;;5108936;28;20483;-65
2021/04/23 15:16:04;;;;;;;30.02;18.83;;;;;;;;;;5110440;28;20044;-65
2021/04/23 15:18:31;;;;;;;26.50;16.42;;;;;;;;;;5110423;28;20107;-65
2021/04/23 15:20:57;;;;;;;27.90;18.10;;;;;;;;;;5109899;28;20475;-65
2021/04/23 15:23:23;;;;;;;27.33;17.20;;;;;;;;;;5110148;28;20024;-65
2021/04/23 15:25:53;;;;;;;21.95;14.15;;;;;;;;;;5110085;28;20066;-65
2021/04/23 15:28:19;;;;;;;16.75;11.90;;;;;;;;;;5109560;28;20126;-65
2021/04/23 15:30:46;;;;;;;17.42;12.38;;;;;;;;;;5109993;28;20012;-65
2021/04/23 15:33:14;;;;;;;16.23;11.02;;;;;;;;;;5110074;28;20020;-65
2021/04/23 15:35:40;;;;;;;15.95;10.63;;;;;;;;;;5108298;28;20127;-65
2021/04/23 15:38:07;;;;;;;17.10;10.65;;;;;;;;;;5108736;28;20020;-65
2021/04/23 15:40:34;;;;;;;17.58;12.80;;;;;;;;;;5109970;28;20066;-65
2021/04/23 15:43:19;;;;;;;12.73;8.98;;;;;;;;;;5029969;27;20386;-64
2021/04/23 15:45:47;;;;;;;22.00;13.77;;;;;;;;;;5028727;28;20049;-67
2021/04/23 15:48:14;;;;;;;17.95;11.23;;;;;;;;;;5029489;28;20084;-65
2021/04/23 15:51:57;;;;;;;22.55;15.55;;;;;;;;;;5110460;27;20385;-66
2021/04/23 15:54:23;;;;;;;34.65;22.65;;;;;;;;;;5110369;28;20028;-65
2021/04/23 15:56:49;;;;;;;18.20;10.90;;;;;;;;;;5110074;28;20055;-65
2021/04/23 15:59:15;;;;;;;21.77;14.48;;;;;;;;;;5110665;28;20031;-65
2021/04/23 16:01:42;;;;;;;21.38;15.20;;;;;;;;;;5109076;28;20441;-65
2021/04/23 16:04:08;;;;;;;16.58;10.80;;;;;;;;;;5108448;28;20114;-65
2021/04/23 16:06:34;;;;;;;22.48;14.13;;;;;;;;;;5108839;28;20047;-65
2021/04/23 16:09:02;;;;;;;17.83;12.20;;;;;;;;;;5109739;28;20020;-66
2021/04/23 16:11:28;;;;;;;19.25;13.98;;;;;;;;;;5110081;28;20483;-66
2021/04/23 16:13:54;;;;;;;25.90;16.73;;;;;;;;;;5110053;28;20050;-66
2021/04/23 16:16:20;;;;;;;28.80;19.05;;;;;;;;;;5109697;28;20419;-66
2021/04/23 16:18:47;;;;;;;28.73;17.27;;;;;;;;;;5108890;28;20078;-66
2021/04/23 16:21:13;;;;;;;24.23;15.95;;;;;;;;;;5109706;28;20023;-66
2021/04/23 16:23:40;;;;;;;25.77;16.38;;;;;;;;;;5109338;28;20024;-66
2021/04/23 16:27:54;;;;;;;37.28;21.92;;;;;;;;;;5110955;27;20397;-64
2021/04/23 16:30:21;;;;;;;19.95;13.50;;;;;;;;;;5110061;28;20092;-64
2021/04/23 16:35:59;;;;;;;26.73;17.10;;;;;;;;;;5090103;27;20411;-64
2021/04/23 16:38:25;;;;;;;22.13;15.57;;;;;;;;;;5089834;28;20089;-64
2021/04/23 16:43:00;;;;;;;24.13;16.20;;;;;;;;;;5110490;27;20790;-65
2021/04/23 16:45:27;;;;;;;26.95;17.55;;;;;;;;;;5110062;28;20047;-65
2021/04/23 16:47:53;;;;;;;28.98;19.90;;;;;;;;;;5109122;28;20383;-65
2021/04/23 16:50:19;;;;;;;30.20;20.92;;;;;;;;;;5110277;28;20024;-66
2021/04/23 16:52:46;;;;;;;33.25;20.92;;;;;;;;;;5109860;28;20054;-66
2021/04/23 16:55:13;;;;;;;39.47;26.70;;;;;;;;;;5108974;28;20024;-65
2021/04/23 16:57:39;;;;;;;37.60;23.27;;;;;;;;;;5110314;28;20412;-66
2021/04/23 17:00:27;;;;;;;51.50;29.20;;;;;;;;;;5110559;27;20442;-65
2021/04/23 17:02:54;;;;;;;49.15;27.63;;;;;;;;;;5108925;28;20085;-65
2021/04/23 17:05:20;;;;;;;42.00;26.02;;;;;;;;;;5109791;28;20028;-65
2021/04/23 17:07:47;;;;;;;42.40;29.50;;;;;;;;;;5110191;28;20016;-66
2021/04/23 17:10:16;;;;;;;49.50;32.08;;;;;;;;;;5109190;28;20020;-66
2021/04/23 17:12:42;;;;;;;46.42;29.98;;;;;;;;;;5109790;28;20417;-66
2021/04/23 17:16:20;;;;;;;34.83;23.80;;;;;;;;;;5110186;27;20389;-66
2021/04/23 17:18:46;;;;;;;25.92;19.40;;;;;;;;;;5110431;28;20078;-66
2021/04/23 17:21:42;;;;;;;27.90;17.73;;;;;;;;;;5069782;28;20725;-66
2021/04/23 17:24:33;;;;;;;27.45;18.17;;;;;;;;;;5110235;27;20437;-65
2021/04/23 17:26:59;;;;;;;32.78;20.25;;;;;;;;;;5109922;28;20020;-65
2021/04/23 17:29:25;;;;;;;31.38;19.80;;;;;;;;;;5110336;28;20016;-65
2021/04/23 17:31:52;;;;;;;34.92;19.85;;;;;;;;;;5110340;28;20518;-65